sensor_id;sensor_type;location;lat;lon;timestamp;P1;durP1;ratioP1;P2;durP2;ratioP2
61483;SDS011;47349;55.640;37.692;2022-11-11T00:02:40;48.38;;;23.27;;
61483;SDS011;47349;55.640;37.692;2022-11-11T00:07:06;54.42;;;25.52;;
61483;SDS011;47349;55.640;37.692;2022-11-11T00:10:18;54.47;;;25.90;;
61483;SDS011;47349;55.640;37.692;2022-11-11T00:14:03;48.90;;;21.02;;
61483;SDS011;47349;55.640;37.692;2022-11-11T00:17:22;61.47;;;25.30;;
61483;SDS011;47349;55.640;37.692;2022-11-11T00:21:11;46.63;;;20.38;;
61483;SDS011;47349;55.640;37.692;2022-11-11T00:24:43;46.25;;;22.20;;
61483;SDS011;47349;55.640;37.692;2022-11-11T00:28:09;50.83;;;21.63;;
61483;SDS011;47349;55.640;37.692;2022-11-11T00:31:34;42.03;;;21.05;;
61483;SDS011;47349;55.640;37.692;2022-11-11T00:35:13;51.33;;;22.23;;
61483;SDS011;47349;55.640;37.692;2022-11-11T00:39:11;42.97;;;19.25;;
61483;SDS011;47349;55.640;37.692;2022-11-11T00:42:12;54.53;;;22.63;;
61483;SDS011;47349;55.640;37.692;2022-11-11T00:45:33;53.88;;;24.55;;
61483;SDS011;47349;55.640;37.692;2022-11-11T00:49:41;45.17;;;20.25;;
61483;SDS011;47349;55.640;37.692;2022-11-11T00:53:13;50.22;;;20.98;;
61483;SDS011;47349;55.640;37.692;2022-11-11T00:56:52;54.55;;;23.15;;
61483;SDS011;47349;55.640;37.692;2022-11-11T00:59:59;55.58;;;23.45;;
61483;SDS011;47349;55.640;37.692;2022-11-11T01:03:26;51.42;;;19.85;;
61483;SDS011;47349;55.640;37.692;2022-11-11T01:06:49;55.15;;;23.15;;
61483;SDS011;47349;55.640;37.692;2022-11-11T01:09:58;50.95;;;23.30;;
61483;SDS011;47349;55.640;37.692;2022-11-11T01:13:39;59.65;;;23.92;;
61483;SDS011;47349;55.640;37.692;2022-11-11T01:16:46;54.40;;;23.08;;
61483;SDS011;47349;55.640;37.692;2022-11-11T01:20:30;55.40;;;21.88;;
61483;SDS011;47349;55.640;37.692;2022-11-11T01:24:03;47.92;;;21.70;;
61483;SDS011;47349;55.640;37.692;2022-11-11T01:27:13;49.97;;;20.85;;
61483;SDS011;47349;55.640;37.692;2022-11-11T01:30:37;40.95;;;19.60;;
61483;SDS011;47349;55.640;37.692;2022-11-11T01:34:03;44.35;;;19.15;;
61483;SDS011;47349;55.640;37.692;2022-11-11T01:37:24;40.90;;;18.13;;
61483;SDS011;47349;55.640;37.692;2022-11-11T01:40:26;31.80;;;15.23;;
61483;SDS011;47349;55.640;37.692;2022-11-11T01:51:28;33.22;;;15.73;;
61483;SDS011;47349;55.640;37.692;2022-11-11T01:55:09;34.15;;;18.50;;
61483;SDS011;47349;55.640;37.692;2022-11-11T01:58:43;31.02;;;15.73;;
61483;SDS011;47349;55.640;37.692;2022-11-11T02:02:40;33.78;;;16.35;;
61483;SDS011;47349;55.640;37.692;2022-11-11T02:06:12;26.67;;;13.10;;
61483;SDS011;47349;55.640;37.692;2022-11-11T02:10:05;27.30;;;13.82;;
61483;SDS011;47349;55.640;37.692;2022-11-11T02:13:14;24.02;;;13.13;;
61483;SDS011;47349;55.640;37.692;2022-11-11T02:16:41;31.77;;;16.33;;
61483;SDS011;47349;55.640;37.692;2022-11-11T02:20:32;29.00;;;14.45;;
61483;SDS011;47349;55.640;37.692;2022-11-11T02:24:11;27.85;;;15.43;;
61483;SDS011;47349;55.640;37.692;2022-11-11T02:27:56;29.73;;;13.10;;
61483;SDS011;47349;55.640;37.692;2022-11-11T02:31:28;27.40;;;12.38;;
61483;SDS011;47349;55.640;37.692;2022-11-11T02:35:19;29.55;;;14.00;;
61483;SDS011;47349;55.640;37.692;2022-11-11T02:38:51;20.63;;;10.25;;
61483;SDS011;47349;55.640;37.692;2022-11-11T02:42:29;27.25;;;12.98;;
61483;SDS011;47349;55.640;37.692;2022-11-11T02:46:07;23.13;;;12.60;;
61483;SDS011;47349;55.640;37.692;2022-11-11T02:49:58;25.05;;;11.85;;
61483;SDS011;47349;55.640;37.692;2022-11-11T02:53:35;29.50;;;13.27;;
61483;SDS011;47349;55.640;37.692;2022-11-11T02:57:10;29.85;;;13.73;;
61483;SDS011;47349;55.640;37.692;2022-11-11T03:00:56;26.40;;;14.27;;
61483;SDS011;47349;55.640;37.692;2022-11-11T03:04:55;26.30;;;13.70;;
61483;SDS011;47349;55.640;37.692;2022-11-11T03:08:57;19.50;;;9.20;;
61483;SDS011;47349;55.640;37.692;2022-11-11T03:17:58;21.90;;;11.82;;
61483;SDS011;47349;55.640;37.692;2022-11-11T05:36:57;17.95;;;10.48;;
61483;SDS011;47349;55.640;37.692;2022-11-11T05:39:58;21.15;;;10.20;;
61483;SDS011;47349;55.640;37.692;2022-11-11T05:43:19;15.50;;;9.13;;
61483;SDS011;47349;55.640;37.692;2022-11-11T05:46:19;15.07;;;9.93;;
61483;SDS011;47349;55.640;37.692;2022-11-11T05:49:28;15.57;;;9.82;;
61483;SDS011;47349;55.640;37.692;2022-11-11T05:52:29;15.90;;;10.52;;
61483;SDS011;47349;55.640;37.692;2022-11-11T05:55:30;19.30;;;11.20;;
61483;SDS011;47349;55.640;37.692;2022-11-11T05:58:30;16.90;;;10.23;;
61483;SDS011;47349;55.640;37.692;2022-11-11T06:01:38;17.13;;;9.77;;
61483;SDS011;47349;55.640;37.692;2022-11-11T06:04:58;15.68;;;10.15;;
61483;SDS011;47349;55.640;37.692;2022-11-11T06:07:59;14.73;;;9.02;;
61483;SDS011;47349;55.640;37.692;2022-11-11T06:10:47;12.50;;;9.20;;
61483;SDS011;47349;55.640;37.692;2022-11-11T06:13:50;16.30;;;9.57;;
61483;SDS011;47349;55.640;37.692;2022-11-11T06:16:49;13.80;;;8.88;;
61483;SDS011;47349;55.640;37.692;2022-11-11T06:19:50;14.73;;;9.30;;
61483;SDS011;47349;55.640;37.692;2022-11-11T06:22:49;13.45;;;8.23;;
61483;SDS011;47349;55.640;37.692;2022-11-11T06:25:57;11.32;;;8.20;;
61483;SDS011;47349;55.640;37.692;2022-11-11T06:29:12;14.63;;;9.48;;
61483;SDS011;47349;55.640;37.692;2022-11-11T06:32:17;11.20;;;7.85;;
61483;SDS011;47349;55.640;37.692;2022-11-11T06:35:26;14.70;;;9.65;;
61483;SDS011;47349;55.640;37.692;2022-11-11T06:38:25;12.52;;;7.95;;
61483;SDS011;47349;55.640;37.692;2022-11-11T06:41:35;14.60;;;9.15;;
61483;SDS011;47349;55.640;37.692;2022-11-11T06:44:23;14.45;;;9.60;;
61483;SDS011;47349;55.640;37.692;2022-11-11T06:47:23;11.52;;;6.28;;
61483;SDS011;47349;55.640;37.692;2022-11-11T06:50:36;13.45;;;8.63;;
61483;SDS011;47349;55.640;37.692;2022-11-11T06:53:36;10.90;;;7.32;;
61483;SDS011;47349;55.640;37.692;2022-11-11T06:56:36;15.93;;;9.20;;
61483;SDS011;47349;55.640;37.692;2022-11-11T06:59:44;15.57;;;9.38;;
61483;SDS011;47349;55.640;37.692;2022-11-11T07:02:44;17.65;;;10.23;;
61483;SDS011;47349;55.640;37.692;2022-11-11T07:05:46;14.95;;;11.30;;
61483;SDS011;47349;55.640;37.692;2022-11-11T07:08:46;15.70;;;9.90;;
61483;SDS011;47349;55.640;37.692;2022-11-11T07:11:51;14.38;;;9.25;;
61483;SDS011;47349;55.640;37.692;2022-11-11T07:15:09;14.70;;;10.55;;
61483;SDS011;47349;55.640;37.692;2022-11-11T07:18:33;15.93;;;10.73;;
61483;SDS011;47349;55.640;37.692;2022-11-11T07:21:33;13.40;;;8.02;;
61483;SDS011;47349;55.640;37.692;2022-11-11T07:24:35;14.45;;;8.73;;
61483;SDS011;47349;55.640;37.692;2022-11-11T07:27:38;13.10;;;8.65;;
61483;SDS011;47349;55.640;37.692;2022-11-11T07:30:52;13.85;;;7.13;;
61483;SDS011;47349;55.640;37.692;2022-11-11T07:33:53;16.10;;;9.57;;
61483;SDS011;47349;55.640;37.692;2022-11-11T07:37:00;12.80;;;9.25;;
61483;SDS011;47349;55.640;37.692;2022-11-11T07:40:05;15.52;;;10.18;;
61483;SDS011;47349;55.640;37.692;2022-11-11T07:43:06;14.55;;;9.80;;
61483;SDS011;47349;55.640;37.692;2022-11-11T07:46:05;15.98;;;10.00;;
61483;SDS011;47349;55.640;37.692;2022-11-11T07:51:40;14.45;;;9.43;;
61483;SDS011;47349;55.640;37.692;2022-11-11T07:54:26;13.40;;;9.10;;
61483;SDS011;47349;55.640;37.692;2022-11-11T07:57:11;14.65;;;8.95;;
61483;SDS011;47349;55.640;37.692;2022-11-11T08:00:11;20.45;;;9.10;;
61483;SDS011;47349;55.640;37.692;2022-11-11T08:03:11;23.13;;;10.40;;
61483;SDS011;47349;55.640;37.692;2022-11-11T08:06:11;22.20;;;10.90;;
61483;SDS011;47349;55.640;37.692;2022-11-11T08:09:11;17.55;;;11.30;;
61483;SDS011;47349;55.640;37.692;2022-11-11T08:12:11;15.52;;;9.55;;
61483;SDS011;47349;55.640;37.692;2022-11-11T08:15:29;20.25;;;10.65;;
61483;SDS011;47349;55.640;37.692;2022-11-11T08:18:29;14.02;;;9.18;;
61483;SDS011;47349;55.640;37.692;2022-11-11T08:21:28;11.50;;;7.45;;
61483;SDS011;47349;55.640;37.692;2022-11-11T08:24:27;16.63;;;10.20;;
61483;SDS011;47349;55.640;37.692;2022-11-11T08:27:29;16.10;;;10.32;;
61483;SDS011;47349;55.640;37.692;2022-11-11T08:30:30;19.83;;;12.25;;
61483;SDS011;47349;55.640;37.692;2022-11-11T08:33:30;15.75;;;10.02;;
61483;SDS011;47349;55.640;37.692;2022-11-11T08:36:30;19.00;;;12.40;;
61483;SDS011;47349;55.640;37.692;2022-11-11T08:39:30;17.95;;;9.98;;
61483;SDS011;47349;55.640;37.692;2022-11-11T08:42:28;17.70;;;11.30;;
61483;SDS011;47349;55.640;37.692;2022-11-11T08:45:24;26.05;;;13.45;;
61483;SDS011;47349;55.640;37.692;2022-11-11T08:48:21;18.25;;;11.18;;
61483;SDS011;47349;55.640;37.692;2022-11-11T08:51:09;16.13;;;9.85;;
61483;SDS011;47349;55.640;37.692;2022-11-11T08:54:11;20.42;;;12.40;;
61483;SDS011;47349;55.640;37.692;2022-11-11T08:57:12;23.25;;;11.18;;
61483;SDS011;47349;55.640;37.692;2022-11-11T09:00:13;21.52;;;12.18;;
61483;SDS011;47349;55.640;37.692;2022-11-11T09:03:13;18.35;;;10.90;;
61483;SDS011;47349;55.640;37.692;2022-11-11T09:06:13;16.80;;;10.60;;
61483;SDS011;47349;55.640;37.692;2022-11-11T09:09:13;18.40;;;10.93;;
61483;SDS011;47349;55.640;37.692;2022-11-11T09:12:12;18.48;;;10.10;;
61483;SDS011;47349;55.640;37.692;2022-11-11T09:15:12;18.45;;;10.02;;
61483;SDS011;47349;55.640;37.692;2022-11-11T09:18:11;16.73;;;10.75;;
61483;SDS011;47349;55.640;37.692;2022-11-11T09:21:12;19.88;;;12.35;;
61483;SDS011;47349;55.640;37.692;2022-11-11T09:24:13;19.20;;;10.82;;
61483;SDS011;47349;55.640;37.692;2022-11-11T09:27:12;28.08;;;13.30;;
61483;SDS011;47349;55.640;37.692;2022-11-11T09:30:12;18.48;;;10.20;;
61483;SDS011;47349;55.640;37.692;2022-11-11T09:33:13;11.70;;;7.00;;
61483;SDS011;47349;55.640;37.692;2022-11-11T09:36:16;16.52;;;10.23;;
61483;SDS011;47349;55.640;37.692;2022-11-11T09:39:19;16.15;;;9.13;;
61483;SDS011;47349;55.640;37.692;2022-11-11T09:42:41;12.07;;;9.07;;
61483;SDS011;47349;55.640;37.692;2022-11-11T09:52:17;15.93;;;11.00;;
61483;SDS011;47349;55.640;37.692;2022-11-11T09:55:32;14.45;;;9.43;;
61483;SDS011;47349;55.640;37.692;2022-11-11T09:58:42;16.50;;;10.73;;
61483;SDS011;47349;55.640;37.692;2022-11-11T10:01:57;11.18;;;7.20;;
61483;SDS011;47349;55.640;37.692;2022-11-11T10:05:05;15.93;;;10.05;;
61483;SDS011;47349;55.640;37.692;2022-11-11T10:08:34;12.20;;;9.55;;
61483;SDS011;47349;55.640;37.692;2022-11-11T10:11:52;11.95;;;8.50;;
61483;SDS011;47349;55.640;37.692;2022-11-11T10:15:03;15.82;;;10.65;;
61483;SDS011;47349;55.640;37.692;2022-11-11T10:21:35;15.73;;;9.07;;
61483;SDS011;47349;55.640;37.692;2022-11-11T10:28:13;11.63;;;8.18;;
61483;SDS011;47349;55.640;37.692;2022-11-11T10:31:20;14.40;;;9.13;;
61483;SDS011;47349;55.640;37.692;2022-11-11T10:34:21;17.10;;;11.05;;
61483;SDS011;47349;55.640;37.692;2022-11-11T10:37:34;13.20;;;8.77;;
61483;SDS011;47349;55.640;37.692;2022-11-11T10:40:40;14.20;;;10.10;;
61483;SDS011;47349;55.640;37.692;2022-11-11T10:43:46;17.07;;;10.50;;
61483;SDS011;47349;55.640;37.692;2022-11-11T10:50:03;13.73;;;9.07;;
61483;SDS011;47349;55.640;37.692;2022-11-11T10:53:32;13.50;;;10.35;;
61483;SDS011;47349;55.640;37.692;2022-11-11T10:56:39;14.85;;;9.50;;
61483;SDS011;47349;55.640;37.692;2022-11-11T10:59:38;12.45;;;8.75;;
61483;SDS011;47349;55.640;37.692;2022-11-11T11:02:33;13.60;;;8.73;;
61483;SDS011;47349;55.640;37.692;2022-11-11T11:08:40;15.50;;;9.73;;
61483;SDS011;47349;55.640;37.692;2022-11-11T11:12:28;16.73;;;10.10;;
61483;SDS011;47349;55.640;37.692;2022-11-11T11:15:17;14.50;;;10.77;;
61483;SDS011;47349;55.640;37.692;2022-11-11T11:18:08;16.95;;;11.93;;
61483;SDS011;47349;55.640;37.692;2022-11-11T11:21:10;15.73;;;9.57;;
61483;SDS011;47349;55.640;37.692;2022-11-11T11:24:20;14.73;;;9.95;;
61483;SDS011;47349;55.640;37.692;2022-11-11T11:27:34;12.00;;;8.80;;
61483;SDS011;47349;55.640;37.692;2022-11-11T11:31:34;14.77;;;9.52;;
61483;SDS011;47349;55.640;37.692;2022-11-11T11:35:01;13.18;;;9.27;;
61483;SDS011;47349;55.640;37.692;2022-11-11T11:38:03;13.43;;;9.27;;
61483;SDS011;47349;55.640;37.692;2022-11-11T11:41:36;16.35;;;10.98;;
61483;SDS011;47349;55.640;37.692;2022-11-11T11:45:11;15.77;;;8.82;;
61483;SDS011;47349;55.640;37.692;2022-11-11T11:55:11;19.27;;;11.65;;
61483;SDS011;47349;55.640;37.692;2022-11-11T12:08:57;15.38;;;11.07;;
61483;SDS011;47349;55.640;37.692;2022-11-11T12:15:37;18.98;;;12.35;;
61483;SDS011;47349;55.640;37.692;2022-11-11T12:31:57;20.92;;;13.50;;
61483;SDS011;47349;55.640;37.692;2022-11-11T12:35:31;19.45;;;8.43;;
61483;SDS011;47349;55.640;37.692;2022-11-11T12:44:44;19.58;;;11.40;;
61483;SDS011;47349;55.640;37.692;2022-11-11T13:01:13;16.77;;;11.02;;
61483;SDS011;47349;55.640;37.692;2022-11-11T13:04:28;14.90;;;10.63;;
61483;SDS011;47349;55.640;37.692;2022-11-11T13:17:59;15.57;;;10.52;;
61483;SDS011;47349;55.640;37.692;2022-11-11T13:21:00;15.63;;;10.23;;
61483;SDS011;47349;55.640;37.692;2022-11-11T13:24:07;13.68;;;8.80;;
61483;SDS011;47349;55.640;37.692;2022-11-11T13:26:59;15.00;;;9.57;;
61483;SDS011;47349;55.640;37.692;2022-11-11T13:33:23;16.60;;;10.10;;
61483;SDS011;47349;55.640;37.692;2022-11-11T13:36:18;16.15;;;10.73;;
61483;SDS011;47349;55.640;37.692;2022-11-11T13:39:22;15.73;;;11.23;;
61483;SDS011;47349;55.640;37.692;2022-11-11T13:42:26;15.05;;;10.60;;
61483;SDS011;47349;55.640;37.692;2022-11-11T13:45:55;16.27;;;10.80;;
61483;SDS011;47349;55.640;37.692;2022-11-11T13:48:57;14.15;;;7.13;;
61483;SDS011;47349;55.640;37.692;2022-11-11T13:52:17;11.95;;;7.25;;
61483;SDS011;47349;55.640;37.692;2022-11-11T13:55:40;7.97;;;6.70;;
61483;SDS011;47349;55.640;37.692;2022-11-11T13:58:46;13.45;;;6.25;;
61483;SDS011;47349;55.640;37.692;2022-11-11T14:01:48;10.13;;;7.93;;
61483;SDS011;47349;55.640;37.692;2022-11-11T14:05:30;11.43;;;7.53;;
61483;SDS011;47349;55.640;37.692;2022-11-11T14:11:45;9.57;;;6.43;;
61483;SDS011;47349;55.640;37.692;2022-11-11T14:14:45;10.40;;;7.55;;
61483;SDS011;47349;55.640;37.692;2022-11-11T14:17:53;10.25;;;5.15;;
61483;SDS011;47349;55.640;37.692;2022-11-11T14:20:53;8.68;;;6.00;;
61483;SDS011;47349;55.640;37.692;2022-11-11T14:23:54;10.18;;;5.57;;
61483;SDS011;47349;55.640;37.692;2022-11-11T14:27:01;8.93;;;6.80;;
61483;SDS011;47349;55.640;37.692;2022-11-11T14:30:03;9.93;;;6.22;;
61483;SDS011;47349;55.640;37.692;2022-11-11T14:33:10;5.07;;;4.57;;
61483;SDS011;47349;55.640;37.692;2022-11-11T14:36:17;6.67;;;5.97;;
61483;SDS011;47349;55.640;37.692;2022-11-11T14:48:59;7.40;;;5.53;;
61483;SDS011;47349;55.640;37.692;2022-11-11T14:52:00;8.43;;;5.40;;
61483;SDS011;47349;55.640;37.692;2022-11-11T14:58:31;7.20;;;4.50;;
61483;SDS011;47349;55.640;37.692;2022-11-11T15:01:24;10.15;;;7.10;;
61483;SDS011;47349;55.640;37.692;2022-11-11T15:04:26;8.55;;;6.65;;
61483;SDS011;47349;55.640;37.692;2022-11-11T15:07:51;6.43;;;4.95;;
61483;SDS011;47349;55.640;37.692;2022-11-11T15:24:02;8.93;;;6.20;;
61483;SDS011;47349;55.640;37.692;2022-11-11T15:27:07;7.78;;;6.15;;
61483;SDS011;47349;55.640;37.692;2022-11-11T15:30:22;6.78;;;5.05;;
61483;SDS011;47349;55.640;37.692;2022-11-11T15:39:51;5.78;;;4.10;;
61483;SDS011;47349;55.640;37.692;2022-11-11T15:42:41;7.25;;;5.50;;
61483;SDS011;47349;55.640;37.692;2022-11-11T15:46:00;6.32;;;4.22;;
61483;SDS011;47349;55.640;37.692;2022-11-11T15:49:01;9.77;;;5.65;;
61483;SDS011;47349;55.640;37.692;2022-11-11T15:52:02;14.30;;;6.18;;
61483;SDS011;47349;55.640;37.692;2022-11-11T15:55:09;7.10;;;5.35;;
61483;SDS011;47349;55.640;37.692;2022-11-11T15:58:30;5.97;;;4.00;;
61483;SDS011;47349;55.640;37.692;2022-11-11T16:01:32;7.97;;;5.30;;
61483;SDS011;47349;55.640;37.692;2022-11-11T16:04:32;7.72;;;4.78;;
61483;SDS011;47349;55.640;37.692;2022-11-11T16:07:41;18.85;;;10.55;;
61483;SDS011;47349;55.640;37.692;2022-11-11T16:10:42;6.50;;;4.35;;
61483;SDS011;47349;55.640;37.692;2022-11-11T16:13:47;6.70;;;4.65;;
61483;SDS011;47349;55.640;37.692;2022-11-11T16:16:57;5.53;;;4.53;;
61483;SDS011;47349;55.640;37.692;2022-11-11T16:20:00;6.15;;;5.03;;
61483;SDS011;47349;55.640;37.692;2022-11-11T16:23:12;6.82;;;4.15;;
61483;SDS011;47349;55.640;37.692;2022-11-11T16:26:16;7.72;;;4.68;;
61483;SDS011;47349;55.640;37.692;2022-11-11T16:29:12;9.52;;;4.78;;
61483;SDS011;47349;55.640;37.692;2022-11-11T16:32:30;7.05;;;5.20;;
61483;SDS011;47349;55.640;37.692;2022-11-11T16:35:49;10.50;;;5.90;;
61483;SDS011;47349;55.640;37.692;2022-11-11T16:38:50;6.40;;;5.38;;
61483;SDS011;47349;55.640;37.692;2022-11-11T16:42:17;8.40;;;4.15;;
61483;SDS011;47349;55.640;37.692;2022-11-11T16:45:20;11.45;;;5.07;;
61483;SDS011;47349;55.640;37.692;2022-11-11T16:51:37;8.25;;;5.10;;
61483;SDS011;47349;55.640;37.692;2022-11-11T16:55:06;6.00;;;4.40;;
61483;SDS011;47349;55.640;37.692;2022-11-11T16:58:23;9.57;;;4.60;;
61483;SDS011;47349;55.640;37.692;2022-11-11T17:01:15;7.07;;;4.32;;
61483;SDS011;47349;55.640;37.692;2022-11-11T17:04:15;5.85;;;4.47;;
61483;SDS011;47349;55.640;37.692;2022-11-11T17:10:32;11.93;;;4.70;;
61483;SDS011;47349;55.640;37.692;2022-11-11T17:13:37;9.73;;;5.32;;
61483;SDS011;47349;55.640;37.692;2022-11-11T17:16:37;8.13;;;5.10;;
61483;SDS011;47349;55.640;37.692;2022-11-11T17:19:37;5.13;;;3.75;;
61483;SDS011;47349;55.640;37.692;2022-11-11T17:22:46;8.20;;;5.65;;
61483;SDS011;47349;55.640;37.692;2022-11-11T17:25:47;6.28;;;4.35;;
61483;SDS011;47349;55.640;37.692;2022-11-11T17:28:47;7.60;;;5.55;;
61483;SDS011;47349;55.640;37.692;2022-11-11T17:31:47;7.95;;;4.78;;
61483;SDS011;47349;55.640;37.692;2022-11-11T17:34:47;7.60;;;5.28;;
61483;SDS011;47349;55.640;37.692;2022-11-11T17:37:47;6.50;;;5.07;;
61483;SDS011;47349;55.640;37.692;2022-11-11T17:40:47;6.93;;;5.22;;
61483;SDS011;47349;55.640;37.692;2022-11-11T17:43:49;8.35;;;5.60;;
61483;SDS011;47349;55.640;37.692;2022-11-11T17:46:52;8.50;;;5.97;;
61483;SDS011;47349;55.640;37.692;2022-11-11T17:49:54;8.45;;;6.05;;
61483;SDS011;47349;55.640;37.692;2022-11-11T17:52:57;9.95;;;6.63;;
61483;SDS011;47349;55.640;37.692;2022-11-11T17:55:58;9.63;;;7.15;;
61483;SDS011;47349;55.640;37.692;2022-11-11T17:59:18;9.65;;;5.30;;
61483;SDS011;47349;55.640;37.692;2022-11-11T18:02:17;14.38;;;6.65;;
61483;SDS011;47349;55.640;37.692;2022-11-11T18:05:18;14.10;;;6.88;;
61483;SDS011;47349;55.640;37.692;2022-11-11T18:08:19;11.23;;;6.95;;
61483;SDS011;47349;55.640;37.692;2022-11-11T18:11:20;10.02;;;7.22;;
61483;SDS011;47349;55.640;37.692;2022-11-11T18:14:20;12.65;;;6.13;;
61483;SDS011;47349;55.640;37.692;2022-11-11T18:17:20;12.60;;;6.18;;
61483;SDS011;47349;55.640;37.692;2022-11-11T18:20:22;11.63;;;7.07;;
61483;SDS011;47349;55.640;37.692;2022-11-11T18:23:22;12.68;;;7.05;;
61483;SDS011;47349;55.640;37.692;2022-11-11T18:26:26;12.07;;;7.10;;
61483;SDS011;47349;55.640;37.692;2022-11-11T18:29:14;13.50;;;7.68;;
61483;SDS011;47349;55.640;37.692;2022-11-11T18:32:15;12.73;;;6.38;;
61483;SDS011;47349;55.640;37.692;2022-11-11T18:35:15;10.35;;;7.20;;
61483;SDS011;47349;55.640;37.692;2022-11-11T18:38:16;12.73;;;7.63;;
61483;SDS011;47349;55.640;37.692;2022-11-11T18:41:19;11.38;;;7.30;;
61483;SDS011;47349;55.640;37.692;2022-11-11T18:44:06;10.88;;;7.43;;
61483;SDS011;47349;55.640;37.692;2022-11-11T18:47:28;8.27;;;6.05;;
61483;SDS011;47349;55.640;37.692;2022-11-11T18:50:28;10.60;;;6.95;;
61483;SDS011;47349;55.640;37.692;2022-11-11T18:53:29;13.82;;;7.95;;
61483;SDS011;47349;55.640;37.692;2022-11-11T18:56:34;13.25;;;8.27;;
61483;SDS011;47349;55.640;37.692;2022-11-11T18:59:38;11.55;;;7.55;;
61483;SDS011;47349;55.640;37.692;2022-11-11T19:02:38;9.95;;;7.13;;
61483;SDS011;47349;55.640;37.692;2022-11-11T19:05:38;13.07;;;8.32;;
61483;SDS011;47349;55.640;37.692;2022-11-11T19:08:38;13.30;;;8.70;;
61483;SDS011;47349;55.640;37.692;2022-11-11T19:11:40;12.52;;;7.25;;
61483;SDS011;47349;55.640;37.692;2022-11-11T19:14:42;11.95;;;8.35;;
61483;SDS011;47349;55.640;37.692;2022-11-11T19:17:42;10.82;;;7.40;;
61483;SDS011;47349;55.640;37.692;2022-11-11T19:20:44;9.43;;;6.30;;
61483;SDS011;47349;55.640;37.692;2022-11-11T19:23:45;9.90;;;6.15;;
61483;SDS011;47349;55.640;37.692;2022-11-11T19:26:38;9.90;;;5.93;;
61483;SDS011;47349;55.640;37.692;2022-11-11T19:29:38;14.23;;;7.50;;
61483;SDS011;47349;55.640;37.692;2022-11-11T19:32:39;11.02;;;7.30;;
61483;SDS011;47349;55.640;37.692;2022-11-11T19:35:40;9.82;;;6.47;;
61483;SDS011;47349;55.640;37.692;2022-11-11T19:38:41;10.80;;;8.15;;
61483;SDS011;47349;55.640;37.692;2022-11-11T19:41:32;9.80;;;6.97;;
61483;SDS011;47349;55.640;37.692;2022-11-11T19:44:33;7.07;;;5.72;;
61483;SDS011;47349;55.640;37.692;2022-11-11T19:47:33;10.15;;;7.32;;
61483;SDS011;47349;55.640;37.692;2022-11-11T19:50:34;10.27;;;6.40;;
61483;SDS011;47349;55.640;37.692;2022-11-11T19:53:37;14.40;;;9.07;;
61483;SDS011;47349;55.640;37.692;2022-11-11T19:56:38;10.73;;;7.85;;
61483;SDS011;47349;55.640;37.692;2022-11-11T19:59:39;9.85;;;6.82;;
61483;SDS011;47349;55.640;37.692;2022-11-11T20:02:29;14.23;;;8.02;;
61483;SDS011;47349;55.640;37.692;2022-11-11T20:05:33;8.18;;;6.25;;
61483;SDS011;47349;55.640;37.692;2022-11-11T20:08:35;12.38;;;8.68;;
61483;SDS011;47349;55.640;37.692;2022-11-11T20:11:24;9.60;;;6.65;;
61483;SDS011;47349;55.640;37.692;2022-11-11T20:14:25;8.45;;;6.18;;
61483;SDS011;47349;55.640;37.692;2022-11-11T20:17:25;9.82;;;7.30;;
61483;SDS011;47349;55.640;37.692;2022-11-11T20:20:13;11.35;;;8.00;;
61483;SDS011;47349;55.640;37.692;2022-11-11T20:23:15;11.18;;;7.63;;
61483;SDS011;47349;55.640;37.692;2022-11-11T20:26:15;11.98;;;8.20;;
61483;SDS011;47349;55.640;37.692;2022-11-11T20:29:15;9.55;;;7.25;;
61483;SDS011;47349;55.640;37.692;2022-11-11T20:32:15;11.32;;;8.02;;
61483;SDS011;47349;55.640;37.692;2022-11-11T20:35:15;14.32;;;7.88;;
61483;SDS011;47349;55.640;37.692;2022-11-11T20:38:05;12.88;;;8.93;;
61483;SDS011;47349;55.640;37.692;2022-11-11T20:41:11;13.15;;;8.10;;
61483;SDS011;47349;55.640;37.692;2022-11-11T20:43:59;10.75;;;7.43;;
61483;SDS011;47349;55.640;37.692;2022-11-11T20:47:00;13.27;;;10.57;;
61483;SDS011;47349;55.640;37.692;2022-11-11T20:50:00;13.65;;;11.10;;
61483;SDS011;47349;55.640;37.692;2022-11-11T20:52:49;9.20;;;6.53;;
61483;SDS011;47349;55.640;37.692;2022-11-11T20:55:35;12.82;;;7.95;;
61483;SDS011;47349;55.640;37.692;2022-11-11T20:58:21;13.43;;;8.25;;
61483;SDS011;47349;55.640;37.692;2022-11-11T21:01:25;11.73;;;8.30;;
61483;SDS011;47349;55.640;37.692;2022-11-11T21:04:25;13.30;;;8.35;;
61483;SDS011;47349;55.640;37.692;2022-11-11T21:07:26;15.40;;;10.75;;
61483;SDS011;47349;55.640;37.692;2022-11-11T21:10:11;10.25;;;7.72;;
61483;SDS011;47349;55.640;37.692;2022-11-11T21:13:11;12.85;;;8.02;;
61483;SDS011;47349;55.640;37.692;2022-11-11T21:16:14;12.68;;;9.07;;
61483;SDS011;47349;55.640;37.692;2022-11-11T21:19:34;15.32;;;8.82;;
61483;SDS011;47349;55.640;37.692;2022-11-11T21:22:34;12.98;;;9.95;;
61483;SDS011;47349;55.640;37.692;2022-11-11T21:25:34;11.40;;;8.07;;
61483;SDS011;47349;55.640;37.692;2022-11-11T21:28:35;11.27;;;7.70;;
61483;SDS011;47349;55.640;37.692;2022-11-11T21:31:36;14.38;;;9.70;;
61483;SDS011;47349;55.640;37.692;2022-11-11T21:34:37;12.10;;;8.07;;
61483;SDS011;47349;55.640;37.692;2022-11-11T21:37:37;9.52;;;6.50;;
61483;SDS011;47349;55.640;37.692;2022-11-11T21:40:37;13.27;;;8.52;;
61483;SDS011;47349;55.640;37.692;2022-11-11T21:43:37;15.27;;;9.70;;
61483;SDS011;47349;55.640;37.692;2022-11-11T21:46:39;10.43;;;7.13;;
61483;SDS011;47349;55.640;37.692;2022-11-11T21:49:39;10.07;;;7.35;;
61483;SDS011;47349;55.640;37.692;2022-11-11T21:52:38;14.65;;;8.88;;
61483;SDS011;47349;55.640;37.692;2022-11-11T21:55:38;15.15;;;8.13;;
61483;SDS011;47349;55.640;37.692;2022-11-11T21:58:42;14.95;;;9.15;;
61483;SDS011;47349;55.640;37.692;2022-11-11T22:01:43;11.27;;;8.68;;
61483;SDS011;47349;55.640;37.692;2022-11-11T22:07:31;8.80;;;6.95;;
61483;SDS011;47349;55.640;37.692;2022-11-11T22:10:30;11.70;;;7.25;;
61483;SDS011;47349;55.640;37.692;2022-11-11T22:13:30;10.60;;;7.78;;
61483;SDS011;47349;55.640;37.692;2022-11-11T22:16:32;8.35;;;6.95;;
61483;SDS011;47349;55.640;37.692;2022-11-11T22:19:34;8.82;;;6.20;;
61483;SDS011;47349;55.640;37.692;2022-11-11T22:22:31;9.48;;;7.68;;
61483;SDS011;47349;55.640;37.692;2022-11-11T22:28:18;11.10;;;7.82;;
61483;SDS011;47349;55.640;37.692;2022-11-11T22:31:12;7.68;;;5.85;;
61483;SDS011;47349;55.640;37.692;2022-11-11T22:34:03;11.32;;;6.97;;
61483;SDS011;47349;55.640;37.692;2022-11-11T22:37:05;8.60;;;6.07;;
61483;SDS011;47349;55.640;37.692;2022-11-11T22:40:05;11.25;;;7.68;;
61483;SDS011;47349;55.640;37.692;2022-11-11T22:43:03;7.93;;;6.68;;
61483;SDS011;47349;55.640;37.692;2022-11-11T22:45:56;7.97;;;6.53;;
61483;SDS011;47349;55.640;37.692;2022-11-11T22:48:47;10.40;;;8.38;;
61483;SDS011;47349;55.640;37.692;2022-11-11T22:51:44;9.55;;;7.00;;
61483;SDS011;47349;55.640;37.692;2022-11-11T22:54:44;10.50;;;8.57;;
61483;SDS011;47349;55.640;37.692;2022-11-11T22:57:30;13.25;;;6.00;;
61483;SDS011;47349;55.640;37.692;2022-11-11T23:00:17;9.57;;;7.53;;
61483;SDS011;47349;55.640;37.692;2022-11-11T23:03:04;9.00;;;6.05;;
61483;SDS011;47349;55.640;37.692;2022-11-11T23:05:51;11.23;;;6.53;;